DON PEDRO RESERVOIR (DNP)

Elevation: 830' · TUOLUMNE R basin · Operator: Turlock Irrigation District


Station comments:

11/04/2014Hourly storage has resumed as of 11/4/2014. It had previously stopped at 11/25/2009.


Provisional data, subject to change.
Query executed Sunday at 12:35:03   clock

Select a sensor type for a plot of data.
Note: Reservoir Flows are daily averages.

Earlier

Date RES ELE    STORAGE    RES CHG    TOC STO    ABV TOC    OUTFLOW    INFLOW    PPT INC   
 FEET   AF   AF   AF   AF   CFS   CFS   INCHES  
11/22/2014 692.70 755855 -627 1690000 -- 372 372 0.00
11/23/2014 692.74 755855 627 1690000 -934145 392 392 0.00
11/24/2014 692.74 755855 -1254 1690000 -934145 179 179 0.00
11/25/2014 692.69 755855 -313 1690000 -- 172 172 0.00
11/26/2014 692.65 755542 -313 -- -- -- -- --
11/27/2014 692.76 755855 0 1690000 -- 165 165 0.00
11/28/2014 692.80 755855 0 1690000 -- 167 167 0.00
11/29/2014 692.84 755855 941 1690000 -- 166 166 0.00
11/30/2014 692.92 756483 0 1690000 -- 168 484 0.00
12/01/2014 693.01 757739 628 1690000 -932889 167 800 0.00
12/02/2014 693.16 758996 314 1690000 -931004 167 801 0.00
12/03/2014 693.54 760885 1889 1690000 -- 166 1119 0.00
12/04/2014 694.08 764672 3155 1690000 -925328 166 2075 0.00
12/05/2014 694.32 765305 949 1690000 -- 166 485 0.00
12/06/2014 694.41 765937 950 1690000 -- 172 491 0.00
12/07/2014 694.53 767204 633 1690000 -922796 177 816 0.00
12/08/2014 694.59 767838 0 1690000 -922162 174 493 0.00
12/09/2014 694.68 768472 0 1690000 -921528 176 496 0.00
12/10/2014 694.78 768472 -634 1690000 -921528 176 176 0.00
12/11/2014 694.90 769106 952 1690000 -920894 174 493 0.00
12/12/2014 695.41 772284 3815 1690000 -- 177 1779 0.00
12/13/2014 695.63 774195 1274 1690000 -- 177 1140 0.00
12/14/2014 695.76 774833 638 1690000 -- 175 497 0.00
12/15/2014 695.84 774833 0 1690000 -915167 175 175 0.00
12/16/2014 695.99 776748 1596 1690000 -913252 174 1140 0.00
12/17/2014 696.24 778026 1278 1690000 -911974 175 819 0.00
12/18/2014 696.42 778666 960 1690000 -911334 174 496 0.00
12/19/2014 696.60 780587 1921 -- -- -- -- --
12/20/2014 696.70 781229 642 -- -- -- -- --
12/21/2014 -- -- -- -- -- -- -- --

Later | Latest

Warning! This data is preliminary and subject to revision.

Show DNP Map | Plot DNP Data | 1 Month DNP Data | Real-Time DNP Data | DNP Info